createdAt,value
2022-11-29T00:01:25.203Z,22.77
2022-11-29T00:03:52.532Z,22.63
2022-11-29T00:06:22.134Z,21.90
2022-11-29T00:08:49.415Z,22.42
2022-11-29T00:11:39.445Z,22.27
2022-11-29T00:14:07.809Z,22.98
2022-11-29T00:16:34.297Z,20.52
2022-11-29T00:19:01.461Z,22.85
2022-11-29T00:21:27.841Z,22.55
2022-11-29T00:23:54.512Z,22.05
2022-11-29T00:26:21.446Z,22.48
2022-11-29T00:28:47.827Z,21.88
2022-11-29T00:31:20.034Z,23.55
2022-11-29T00:33:46.434Z,22.52
2022-11-29T00:36:14.063Z,22.88
2022-11-29T00:38:40.760Z,23.25
2022-11-29T00:41:07.683Z,21.65
2022-11-29T00:43:34.032Z,23.08
2022-11-29T00:46:00.514Z,22.65
2022-11-29T00:48:26.968Z,23.58
2022-11-29T00:50:53.627Z,24.10
2022-11-29T00:53:20.076Z,24.90
2022-11-29T00:55:49.986Z,27.08
2022-11-29T00:58:16.578Z,25.05
2022-11-29T01:00:43.094Z,26.95
2022-11-29T01:03:09.758Z,25.25
2022-11-29T01:05:36.109Z,24.00
2022-11-29T01:08:02.702Z,24.63
2022-11-29T01:10:29.096Z,25.08
2022-11-29T01:12:56.163Z,23.67
2022-11-29T01:15:22.610Z,24.23
2022-11-29T01:17:49.396Z,24.45
2022-11-29T01:20:16.290Z,24.48
2022-11-29T01:22:42.773Z,23.33
2022-11-29T01:25:12.150Z,25.20
2022-11-29T01:27:38.581Z,24.67
2022-11-29T01:30:07.114Z,24.50
2022-11-29T01:32:33.522Z,23.38
2022-11-29T01:34:59.834Z,23.20
2022-11-29T01:37:28.787Z,24.50
2022-11-29T01:39:55.282Z,24.75
2022-11-29T01:42:21.718Z,25.35
2022-11-29T01:45:18.969Z,23.52
2022-11-29T01:47:46.184Z,24.35
2022-11-29T01:50:13.249Z,23.13
2022-11-29T01:52:39.987Z,23.35
2022-11-29T01:55:07.555Z,24.30
2022-11-29T01:57:36.701Z,23.25
2022-11-29T02:00:13.913Z,24.02
2022-11-29T02:02:57.178Z,23.90
2022-11-29T02:05:25.296Z,23.90
2022-11-29T02:07:54.483Z,23.23
2022-11-29T02:10:30.799Z,22.52
2022-11-29T02:13:13.578Z,24.20
2022-11-29T02:15:50.261Z,23.40
2022-11-29T02:18:40.208Z,24.17
2022-11-29T02:21:13.368Z,24.63
2022-11-29T02:23:58.173Z,23.95
2022-11-29T02:27:02.361Z,22.77
2022-11-29T02:30:05.863Z,22.05
2022-11-29T02:32:49.740Z,21.92
2022-11-29T02:35:37.849Z,22.77
2022-11-29T02:38:36.751Z,21.35
2022-11-29T02:41:32.984Z,20.42
2022-11-29T02:44:40.013Z,25.25
2022-11-29T02:47:36.435Z,24.42
2022-11-29T02:50:40.993Z,22.33
2022-11-29T02:53:32.052Z,24.02
2022-11-29T02:56:20.570Z,23.67
2022-11-29T03:01:29.256Z,25.33
2022-11-29T03:04:23.447Z,21.52
2022-11-29T03:07:19.785Z,23.70
2022-11-29T03:10:20.457Z,23.65
2022-11-29T03:12:52.749Z,23.27
2022-11-29T03:15:43.900Z,23.17
2022-11-29T03:18:34.929Z,22.92
2022-11-29T03:21:12.485Z,21.73
2022-11-29T03:23:54.827Z,23.27
2022-11-29T03:26:29.577Z,23.33
2022-11-29T03:29:09.513Z,25.52
2022-11-29T03:31:46.449Z,24.75
2022-11-29T03:34:57.170Z,23.85
2022-11-29T03:37:38.374Z,24.30
2022-11-29T03:40:13.702Z,23.10
2022-11-29T03:43:01.563Z,26.05
2022-11-29T03:45:43.485Z,25.88
2022-11-29T03:48:20.323Z,24.13
2022-11-29T03:50:57.775Z,25.70
2022-11-29T03:53:47.204Z,23.40
2022-11-29T03:56:33.100Z,22.90
2022-11-29T03:59:24.319Z,25.23
2022-11-29T04:02:04.097Z,25.33
2022-11-29T04:04:44.871Z,25.65
2022-11-29T04:07:24.683Z,24.17
2022-11-29T04:10:13.532Z,22.90
2022-11-29T04:13:09.767Z,24.20
2022-11-29T04:15:36.220Z,24.92
2022-11-29T04:18:24.245Z,23.33
2022-11-29T04:21:18.632Z,24.40
2022-11-29T04:24:22.664Z,22.45
2022-11-29T04:27:20.444Z,23.33
2022-11-29T04:30:04.044Z,25.15
2022-11-29T04:32:43.816Z,24.33
2022-11-29T04:35:51.590Z,23.50
2022-11-29T04:38:41.390Z,24.85
2022-11-29T04:41:38.488Z,24.05
2022-11-29T04:44:19.207Z,24.02
2022-11-29T04:47:12.001Z,22.75
2022-11-29T04:50:09.279Z,24.00
2022-11-29T04:53:04.931Z,24.27
2022-11-29T04:55:41.851Z,24.40
2022-11-29T04:58:45.056Z,23.48
2022-11-29T05:01:23.280Z,23.60
2022-11-29T05:04:00.903Z,25.73
2022-11-29T05:07:17.447Z,23.67
2022-11-29T05:10:03.049Z,21.33
2022-11-29T05:13:11.120Z,20.85
2022-11-29T05:16:02.544Z,21.42
2022-11-29T05:19:11.586Z,20.92
2022-11-29T05:21:52.175Z,21.33
2022-11-29T05:24:46.325Z,20.58
2022-11-29T05:27:43.344Z,20.50
2022-11-29T05:30:16.742Z,21.33
2022-11-29T05:32:57.537Z,19.73
2022-11-29T05:35:39.024Z,20.88
2022-11-29T05:38:12.372Z,21.52
2022-11-29T05:40:53.714Z,22.08
2022-11-29T05:43:42.970Z,22.08
2022-11-29T05:46:13.829Z,21.75
2022-11-29T05:48:52.848Z,22.33
2022-11-29T05:51:44.546Z,22.33
2022-11-29T05:54:26.413Z,24.33
2022-11-29T05:57:08.150Z,23.73
2022-11-29T05:59:38.301Z,23.83
2022-11-29T06:02:25.836Z,25.00
2022-11-29T06:05:07.152Z,24.63
2022-11-29T06:07:48.217Z,24.02
2022-11-29T06:10:18.319Z,22.55
2022-11-29T06:13:11.364Z,25.10
2022-11-29T06:16:10.978Z,22.13
2022-11-29T06:19:25.488Z,24.08
2022-11-29T06:21:57.848Z,23.30
2022-11-29T06:24:39.124Z,22.50
2022-11-29T06:27:14.688Z,22.83
2022-11-29T06:30:02.851Z,23.02
2022-11-29T06:32:54.355Z,21.25
2022-11-29T06:35:45.647Z,21.98
2022-11-29T06:38:24.623Z,20.35
2022-11-29T06:40:51.545Z,21.92
2022-11-29T06:43:18.192Z,20.55
2022-11-29T06:45:55.888Z,24.20
2022-11-29T06:48:26.367Z,23.30
2022-11-29T06:51:20.615Z,23.88
2022-11-29T06:53:52.239Z,21.90
2022-11-29T06:56:34.575Z,22.20
2022-11-29T06:59:31.696Z,21.48
2022-11-29T07:02:05.772Z,27.05
2022-11-29T07:04:53.655Z,23.02
2022-11-29T07:07:22.214Z,24.48
2022-11-29T07:12:18.586Z,21.25
2022-11-29T07:14:45.849Z,21.60
2022-11-29T07:17:27.513Z,22.73
2022-11-29T07:20:41.114Z,24.77
2022-11-29T07:23:28.097Z,24.73
2022-11-29T07:26:08.412Z,25.33
2022-11-29T07:28:53.481Z,24.40
2022-11-29T07:31:57.135Z,23.83
2022-11-29T07:34:58.415Z,22.08
2022-11-29T07:37:27.790Z,23.80
2022-11-29T07:40:27.294Z,24.50
2022-11-29T07:43:35.048Z,22.42
2022-11-29T07:46:01.781Z,22.92
2022-11-29T07:48:28.211Z,23.00
2022-11-29T07:50:56.413Z,22.42
2022-11-29T07:53:23.584Z,23.13
2022-11-29T07:55:50.379Z,22.70
2022-11-29T07:58:18.307Z,22.38
2022-11-29T08:00:44.986Z,23.50
2022-11-29T08:03:11.608Z,21.13
2022-11-29T08:05:38.535Z,21.88
2022-11-29T08:08:06.313Z,20.17
2022-11-29T08:10:32.786Z,19.10
2022-11-29T08:12:59.093Z,21.00
2022-11-29T08:15:25.888Z,21.20
2022-11-29T08:17:53.299Z,22.17
2022-11-29T08:20:19.783Z,20.98
2022-11-29T08:22:54.215Z,21.85
2022-11-29T08:25:20.642Z,21.83
2022-11-29T08:27:46.957Z,20.27
2022-11-29T08:30:13.465Z,21.73
2022-11-29T08:32:39.856Z,21.30
2022-11-29T08:35:06.341Z,20.73
2022-11-29T08:37:32.724Z,21.60
2022-11-29T08:39:59.125Z,21.63
2022-11-29T08:42:25.545Z,22.75
2022-11-29T08:44:51.976Z,22.77
2022-11-29T08:47:36.721Z,20.17
2022-11-29T08:50:08.018Z,20.95
2022-11-29T08:52:58.261Z,19.88
2022-11-29T08:55:27.868Z,19.83
2022-11-29T08:58:00.190Z,19.02
2022-11-29T09:00:26.488Z,19.92
2022-11-29T09:02:52.849Z,19.33
2022-11-29T09:05:19.281Z,19.08
2022-11-29T09:07:46.857Z,19.13
2022-11-29T09:10:13.261Z,18.88
2022-11-29T09:12:40.261Z,18.52
2022-11-29T09:15:09.300Z,14.80
2022-11-29T09:17:35.811Z,16.42
2022-11-29T09:20:02.268Z,16.77
2022-11-29T09:22:28.650Z,16.25
2022-11-29T09:24:55.068Z,17.55
2022-11-29T09:27:21.419Z,16.90
2022-11-29T09:29:47.826Z,17.77
2022-11-29T09:32:14.163Z,17.67
2022-11-29T09:34:42.258Z,17.75
2022-11-29T09:37:08.786Z,15.85
2022-11-29T09:39:35.160Z,16.48
2022-11-29T09:42:46.321Z,15.65
2022-11-29T09:45:30.124Z,15.57
2022-11-29T09:48:30.966Z,15.02
2022-11-29T09:51:06.102Z,15.75
2022-11-29T09:53:46.425Z,16.88
2022-11-29T09:56:36.323Z,16.80
2022-11-29T09:59:21.482Z,16.63
2022-11-29T10:01:54.660Z,16.38
2022-11-29T10:04:27.494Z,16.23
2022-11-29T10:07:08.817Z,15.32
2022-11-29T10:09:48.170Z,16.30
2022-11-29T10:12:23.641Z,15.65
2022-11-29T10:14:57.578Z,14.75
2022-11-29T10:17:31.701Z,14.85
2022-11-29T10:20:10.364Z,13.73
2022-11-29T10:22:45.906Z,14.02
2022-11-29T10:25:21.707Z,14.15
2022-11-29T10:27:48.103Z,15.85
2022-11-29T10:30:16.244Z,15.20
2022-11-29T10:32:46.225Z,15.15
2022-11-29T10:35:18.227Z,14.05
2022-11-29T10:38:01.364Z,15.10
2022-11-29T10:40:34.890Z,14.45
2022-11-29T10:43:02.149Z,14.82
2022-11-29T10:45:38.816Z,16.02
2022-11-29T10:48:11.875Z,15.35
2022-11-29T10:50:41.753Z,16.13
2022-11-29T10:53:12.938Z,15.60
2022-11-29T10:55:45.574Z,13.30
2022-11-29T10:58:28.063Z,14.60
2022-11-29T11:01:08.836Z,14.23
2022-11-29T11:03:53.536Z,14.15
2022-11-29T11:06:25.553Z,12.05
2022-11-29T11:09:11.064Z,12.70
2022-11-29T11:11:38.677Z,12.27
2022-11-29T11:14:18.395Z,12.60
2022-11-29T11:16:44.926Z,13.20
2022-11-29T11:19:41.023Z,12.77
2022-11-29T11:22:19.009Z,12.07
2022-11-29T11:24:45.640Z,13.70
2022-11-29T11:27:12.185Z,12.77
2022-11-29T11:29:42.377Z,12.85
2022-11-29T11:32:17.252Z,11.55
2022-11-29T11:34:52.780Z,12.35
2022-11-29T11:37:28.343Z,12.68
2022-11-29T11:39:57.548Z,12.40
2022-11-29T11:42:38.561Z,13.02
2022-11-29T11:45:10.799Z,11.68
2022-11-29T11:47:49.361Z,12.30
2022-11-29T11:52:50.693Z,10.98
2022-11-29T11:55:39.306Z,11.50
2022-11-29T11:58:16.445Z,11.55
2022-11-29T12:01:03.402Z,11.15
2022-11-29T12:03:51.634Z,12.48
2022-11-29T12:06:39.484Z,12.18
2022-11-29T12:09:09.017Z,11.82
2022-11-29T12:11:47.900Z,11.85
2022-11-29T12:14:28.165Z,12.38
2022-11-29T12:17:03.796Z,12.75
2022-11-29T12:19:41.247Z,11.38
2022-11-29T12:22:13.563Z,12.18
2022-11-29T12:24:50.125Z,12.10
2022-11-29T12:27:16.585Z,12.18
2022-11-29T12:29:43.029Z,12.75
2022-11-29T12:32:44.745Z,13.23
2022-11-29T12:35:28.221Z,12.10
2022-11-29T12:38:10.636Z,13.07
2022-11-29T12:40:55.018Z,12.82
2022-11-29T12:43:49.405Z,13.00
2022-11-29T12:46:18.785Z,12.07
2022-11-29T12:49:20.541Z,13.57
2022-11-29T12:52:14.204Z,12.25
2022-11-29T12:54:47.897Z,13.45
2022-11-29T12:57:44.403Z,12.98
2022-11-29T13:00:14.826Z,13.02
2022-11-29T13:02:52.401Z,13.45
2022-11-29T13:05:52.969Z,11.73
2022-11-29T13:08:47.439Z,12.90
2022-11-29T13:11:37.377Z,13.13
2022-11-29T13:14:44.889Z,14.35
2022-11-29T13:17:39.539Z,14.20
2022-11-29T13:20:21.484Z,11.45
2022-11-29T13:23:16.846Z,12.52
2022-11-29T13:25:47.047Z,12.80
2022-11-29T13:28:36.285Z,12.77
2022-11-29T13:31:07.891Z,12.30
2022-11-29T13:33:53.992Z,12.32
2022-11-29T13:36:45.433Z,11.20
2022-11-29T13:39:29.778Z,12.60
2022-11-29T13:42:15.279Z,13.18
2022-11-29T13:45:03.999Z,11.75
2022-11-29T13:47:30.330Z,12.63
2022-11-29T13:50:05.365Z,13.15
2022-11-29T13:53:02.313Z,12.10
2022-11-29T13:55:29.504Z,12.15
2022-11-29T13:58:16.647Z,13.90
2022-11-29T14:00:44.015Z,13.18
2022-11-29T14:03:28.624Z,13.68
2022-11-29T14:06:10.108Z,12.60
2022-11-29T14:09:17.954Z,13.38
2022-11-29T14:11:49.164Z,14.65
2022-11-29T14:14:15.449Z,14.45
2022-11-29T14:16:41.744Z,14.13
2022-11-29T14:19:08.205Z,14.30
2022-11-29T14:21:59.151Z,14.40
2022-11-29T14:24:37.851Z,13.18
2022-11-29T14:27:07.370Z,12.63
2022-11-29T14:29:55.001Z,10.27
2022-11-29T14:32:28.577Z,13.48
2022-11-29T14:35:02.043Z,13.80
2022-11-29T14:37:55.387Z,12.88
2022-11-29T14:40:51.264Z,15.55
2022-11-29T14:43:37.951Z,12.27
2022-11-29T14:46:16.570Z,13.60
2022-11-29T14:48:56.523Z,12.85
2022-11-29T14:51:25.853Z,13.60
2022-11-29T14:54:13.365Z,14.32
2022-11-29T14:56:44.895Z,14.60
2022-11-29T14:59:49.311Z,14.30
2022-11-29T15:02:37.938Z,13.00
2022-11-29T15:05:21.343Z,14.32
2022-11-29T15:08:12.917Z,14.32
2022-11-29T15:10:42.944Z,13.15
2022-11-29T15:13:13.813Z,13.75
2022-11-29T15:15:52.300Z,16.42
2022-11-29T15:21:22.831Z,14.82
2022-11-29T15:24:01.404Z,15.20
2022-11-29T15:28:54.114Z,14.77
2022-11-29T15:31:21.268Z,17.10
2022-11-29T15:33:49.202Z,15.85
2022-11-29T15:36:21.319Z,15.07
2022-11-29T15:38:51.061Z,13.88
2022-11-29T15:41:28.977Z,14.80
2022-11-29T15:44:01.694Z,16.85
2022-11-29T15:46:30.457Z,15.32
2022-11-29T15:49:24.869Z,15.43
2022-11-29T15:51:58.729Z,13.80
2022-11-29T15:54:36.658Z,14.63
2022-11-29T15:57:11.480Z,14.80
2022-11-29T15:59:46.250Z,13.88
2022-11-29T16:02:27.818Z,14.90
2022-11-29T16:04:59.475Z,14.82
2022-11-29T16:07:31.990Z,15.93
2022-11-29T16:10:07.675Z,14.50
2022-11-29T16:12:34.180Z,15.68
2022-11-29T16:15:01.466Z,16.35
2022-11-29T16:17:31.040Z,14.15
2022-11-29T16:20:16.634Z,15.20
2022-11-29T16:22:43.067Z,14.55
2022-11-29T16:25:18.688Z,16.02
2022-11-29T16:27:46.089Z,15.98
2022-11-29T16:30:24.298Z,16.73
2022-11-29T16:32:55.409Z,16.48
2022-11-29T16:35:31.524Z,15.95
2022-11-29T16:37:57.996Z,15.68
2022-11-29T16:40:30.098Z,17.30
2022-11-29T16:43:08.412Z,17.67
2022-11-29T16:45:37.474Z,16.05
2022-11-29T16:48:22.087Z,18.13
2022-11-29T16:51:42.468Z,17.05
2022-11-29T16:54:26.309Z,17.13
2022-11-29T16:56:54.534Z,17.80
2022-11-29T16:59:27.301Z,16.98
2022-11-29T17:01:55.981Z,17.77
2022-11-29T17:04:23.924Z,18.20
2022-11-29T17:06:52.771Z,17.23
2022-11-29T17:09:33.047Z,19.25
2022-11-29T17:12:01.075Z,19.20
2022-11-29T17:14:31.449Z,19.65
2022-11-29T17:17:00.801Z,19.98
2022-11-29T17:19:28.930Z,17.92
2022-11-29T17:21:55.454Z,18.60
2022-11-29T17:24:23.155Z,17.92
2022-11-29T17:26:49.797Z,19.50
2022-11-29T17:29:17.490Z,18.67
2022-11-29T17:31:45.622Z,17.80
2022-11-29T17:34:12.219Z,20.08
2022-11-29T17:36:38.845Z,17.77
2022-11-29T17:39:05.394Z,17.77
2022-11-29T17:41:32.777Z,18.35
2022-11-29T17:43:59.997Z,18.77
2022-11-29T17:46:32.590Z,15.88
2022-11-29T17:49:01.230Z,19.00
2022-11-29T17:54:14.590Z,18.42
2022-11-29T17:56:40.983Z,18.42
2022-11-29T17:59:07.441Z,17.20
2022-11-29T18:01:35.784Z,18.30
2022-11-29T18:04:04.209Z,18.67
2022-11-29T18:06:34.901Z,18.98
2022-11-29T18:09:02.452Z,19.13
2022-11-29T18:11:43.254Z,19.23
2022-11-29T18:14:15.206Z,18.88
2022-11-29T18:16:41.921Z,18.15
2022-11-29T18:19:11.893Z,19.92
2022-11-29T18:21:38.321Z,18.80
2022-11-29T18:24:06.357Z,18.75
2022-11-29T18:26:34.329Z,19.15
2022-11-29T18:29:00.670Z,18.00
2022-11-29T18:31:29.913Z,18.25
2022-11-29T18:33:59.057Z,19.08
2022-11-29T18:36:28.269Z,19.80
2022-11-29T18:38:59.926Z,18.85
2022-11-29T18:41:29.025Z,19.17
2022-11-29T18:43:58.883Z,17.92
2022-11-29T18:46:26.213Z,18.42
2022-11-29T18:48:52.885Z,20.20
2022-11-29T18:51:20.345Z,20.10
2022-11-29T18:53:46.978Z,18.10
2022-11-29T18:56:22.364Z,19.80
2022-11-29T18:58:58.567Z,20.70
2022-11-29T19:01:30.499Z,20.77
2022-11-29T19:03:59.321Z,20.80
2022-11-29T19:06:30.825Z,19.95
2022-11-29T19:09:02.352Z,20.30
2022-11-29T19:11:31.265Z,19.95
2022-11-29T19:14:04.265Z,21.10
2022-11-29T19:16:32.780Z,22.60
2022-11-29T19:19:00.587Z,22.33
2022-11-29T19:21:29.117Z,21.45
2022-11-29T19:23:57.447Z,24.13
2022-11-29T19:26:27.481Z,21.75
2022-11-29T19:28:54.479Z,23.02
2022-11-29T19:31:25.374Z,23.80
2022-11-29T19:33:52.646Z,23.63
2022-11-29T19:36:21.584Z,20.42
2022-11-29T19:38:53.158Z,22.30
2022-11-29T19:41:24.525Z,22.45
2022-11-29T19:43:52.039Z,21.92
2022-11-29T19:46:30.770Z,22.30
2022-11-29T19:49:00.400Z,20.35
2022-11-29T19:51:28.948Z,21.77
2022-11-29T19:53:58.229Z,19.67
2022-11-29T19:56:24.952Z,19.83
2022-11-29T19:58:51.434Z,18.52
2022-11-29T20:01:25.035Z,21.40
2022-11-29T20:03:52.564Z,19.95
2022-11-29T20:06:19.655Z,19.45
2022-11-29T20:08:46.929Z,21.17
2022-11-29T20:11:18.941Z,19.67
2022-11-29T20:13:52.742Z,19.42
2022-11-29T20:16:19.377Z,20.77
2022-11-29T20:18:51.169Z,18.77
2022-11-29T20:21:21.383Z,18.73
2022-11-29T20:23:47.955Z,18.13
2022-11-29T20:26:19.820Z,17.58
2022-11-29T20:28:47.701Z,18.25
2022-11-29T20:31:17.528Z,19.00
2022-11-29T20:33:46.102Z,19.38
2022-11-29T20:36:33.672Z,18.33
2022-11-29T20:39:22.248Z,18.20
2022-11-29T20:41:54.601Z,16.58
2022-11-29T20:44:30.427Z,15.23
2022-11-29T20:46:57.049Z,15.65
2022-11-29T20:49:23.708Z,15.85
2022-11-29T20:51:58.655Z,16.15
2022-11-29T20:54:25.042Z,15.40
2022-11-29T20:56:51.452Z,16.58
2022-11-29T20:59:17.821Z,15.95
2022-11-29T21:01:44.159Z,16.63
2022-11-29T21:04:10.510Z,15.68
2022-11-29T21:06:39.407Z,16.45
2022-11-29T21:09:09.041Z,16.00
2022-11-29T21:11:35.698Z,16.48
2022-11-29T21:14:03.894Z,15.82
2022-11-29T21:16:31.851Z,16.80
2022-11-29T21:19:01.417Z,15.00
2022-11-29T21:21:37.340Z,15.60
2022-11-29T21:24:17.919Z,17.67
2022-11-29T21:26:50.705Z,15.73
2022-11-29T21:29:19.684Z,16.92
2022-11-29T21:31:48.316Z,16.80
2022-11-29T21:36:41.759Z,17.40
2022-11-29T21:39:12.331Z,16.92
2022-11-29T21:41:39.144Z,19.33
2022-11-29T21:44:07.530Z,17.67
2022-11-29T21:46:35.177Z,19.27
2022-11-29T21:49:01.601Z,18.08
2022-11-29T21:51:27.984Z,18.38
2022-11-29T21:53:54.534Z,17.02
2022-11-29T21:56:20.914Z,18.08
2022-11-29T21:58:47.301Z,19.25
2022-11-29T22:01:16.540Z,19.58
2022-11-29T22:03:43.656Z,18.75
2022-11-29T22:06:16.465Z,20.10
2022-11-29T22:08:42.806Z,18.50
2022-11-29T22:11:12.734Z,17.85
2022-11-29T22:14:01.205Z,18.52
2022-11-29T22:18:54.914Z,17.45
2022-11-29T22:21:21.333Z,18.38
2022-11-29T22:23:47.749Z,19.00
2022-11-29T22:26:14.604Z,17.45
2022-11-29T22:28:40.985Z,17.25
2022-11-29T22:31:11.904Z,17.15
2022-11-29T22:33:38.655Z,16.08
2022-11-29T22:36:12.947Z,16.02
2022-11-29T22:38:40.095Z,16.02
2022-11-29T22:41:11.700Z,15.38
2022-11-29T22:43:40.207Z,16.27
2022-11-29T22:46:21.738Z,16.08
2022-11-29T22:48:51.628Z,16.77
2022-11-29T22:51:44.136Z,16.80
2022-11-29T22:54:17.331Z,18.52
2022-11-29T22:56:45.314Z,18.88
2022-11-29T22:59:12.032Z,17.75
2022-11-29T23:01:41.054Z,15.90
2022-11-29T23:04:08.912Z,14.73
2022-11-29T23:06:43.207Z,16.23
2022-11-29T23:09:16.612Z,16.45
2022-11-29T23:11:44.923Z,16.92
2022-11-29T23:14:11.791Z,15.20
2022-11-29T23:16:38.172Z,16.17
2022-11-29T23:19:10.114Z,15.48
2022-11-29T23:21:38.917Z,16.67
2022-11-29T23:24:06.051Z,14.73
2022-11-29T23:26:42.505Z,16.02
2022-11-29T23:29:12.585Z,15.73
2022-11-29T23:31:39.338Z,15.93
2022-11-29T23:34:05.731Z,16.27
2022-11-29T23:36:32.157Z,15.73
2022-11-29T23:38:58.531Z,16.15
2022-11-29T23:41:24.919Z,16.13
2022-11-29T23:43:51.269Z,14.45
2022-11-29T23:46:23.131Z,15.40
2022-11-29T23:48:50.052Z,15.98
2022-11-29T23:51:17.593Z,16.48
2022-11-29T23:53:44.493Z,16.48
2022-11-29T23:56:13.894Z,16.55
2022-11-29T23:58:41.287Z,15.55
